Time;durP1;ratioP1;P1;durP2;ratioP2;P2;SDS_P1;SDS_P2;PMS_P1;PMS_P2;Temp;Humidity;BMP_temperature;BMP_pressure;BME280_temperature;BME280_humidity;BME280_pressure;Samples;Min_cycle;Max_cycle;Signal;HPM_P1;HPM_P2
2021/03/29 00:02:06;;;;;;;;;;;;;;;2.74;97.28;94491.13;5032047;28;20320;-78
2021/03/29 00:04:32;;;;;;;;;;;;;;;2.74;97.13;94501.25;5032436;28;19971;-78
2021/03/29 00:07:00;;;;;;;;;;;;;;;2.72;97.53;94492.22;5032055;28;19939;-78
2021/03/29 00:09:28;;;;;;;;;;;;;;;2.80;96.90;94494.88;5031871;28;19920;-78
2021/03/29 00:11:55;;;;;;;;;;;;;;;2.78;97.52;94492.47;5032002;28;19921;-78
2021/03/29 00:14:22;;;;;;;;;;;;;;;2.86;97.46;94503.72;5032232;28;20405;-77
2021/03/29 00:16:49;;;;;;;;;;;;;;;2.88;97.65;94496.78;5032089;28;19928;-78
2021/03/29 00:19:15;;;;;;;;;;;;;;;2.85;97.70;94497.84;5032174;28;19948;-77
2021/03/29 00:21:42;;;;;;;;;;;;;;;2.86;97.75;94501.19;5031317;28;19921;-77
2021/03/29 00:24:08;;;;;;;;;;;;;;;2.84;97.57;94498.78;5025399;28;19921;-77
2021/03/29 00:26:36;;;;;;;;;;;;;;;2.92;97.78;94493.06;5012063;28;19956;-78
2021/03/29 00:29:02;;;;;;;;;;;;;;;2.91;97.17;94483.81;5011959;28;19933;-77
2021/03/29 00:31:28;;;;;;;;;;;;;;;3.00;96.74;94487.31;5011906;28;20417;-77
2021/03/29 00:33:55;;;;;;;;;;;;;;;2.93;97.36;94484.50;5012238;28;19993;-77
2021/03/29 00:36:23;;;;;;;;;;;;;;;2.96;97.64;94478.34;5011736;28;19921;-77
2021/03/29 00:38:49;;;;;;;;;;;;;;;3.00;97.43;94477.19;5012399;28;19972;-77
2021/03/29 00:41:16;;;;;;;;;;;;;;;2.99;96.92;94488.25;5011987;28;19926;-78
2021/03/29 00:43:44;;;;;;;;;;;;;;;2.95;96.72;94487.69;5011962;28;19925;-78
2021/03/29 00:46:11;;;;;;;;;;;;;;;2.93;95.54;94481.97;5011881;28;20375;-78
2021/03/29 00:48:37;;;;;;;;;;;;;;;2.86;96.67;94485.97;5011779;28;20420;-78
2021/03/29 00:51:09;;;;;;;;;;;;;;;2.88;97.18;94492.50;5011436;28;19936;-79
2021/03/29 00:53:36;;;;;;;;;;;;;;;2.91;96.53;94497.31;5011874;28;19921;-79
2021/03/29 00:56:02;;;;;;;;;;;;;;;2.88;96.57;94489.16;5011851;28;19932;-79
2021/03/29 00:58:28;;;;;;;;;;;;;;;2.82;96.94;94490.47;5011498;28;19928;-77
2021/03/29 01:00:57;;;;;;;;;;;;;;;2.75;96.75;94486.84;5011832;28;19921;-77
2021/03/29 01:03:24;;;;;;;;;;;;;;;2.69;97.00;94493.25;5011622;28;19925;-77
2021/03/29 01:05:55;;;;;;;;;;;;;;;2.73;97.26;94489.50;5011658;28;19921;-77
2021/03/29 01:08:22;;;;;;;;;;;;;;;2.76;97.26;94503.69;5011292;28;20434;-78
2021/03/29 01:10:48;;;;;;;;;;;;;;;2.69;97.96;94492.44;5011801;28;19921;-77
2021/03/29 01:13:16;;;;;;;;;;;;;;;2.69;97.75;94500.06;5011483;28;19925;-78
2021/03/29 01:15:43;;;;;;;;;;;;;;;2.62;98.61;94485.34;5011060;28;19932;-77
2021/03/29 01:18:10;;;;;;;;;;;;;;;2.61;99.45;94495.63;5011411;28;19945;-77
2021/03/29 01:20:48;;;;;;;;;;;;;;;2.60;99.27;94491.50;5011204;28;20397;-77
2021/03/29 01:23:15;;;;;;;;;;;;;;;2.61;98.78;94481.22;5011285;28;19921;-77
2021/03/29 01:25:45;;;;;;;;;;;;;;;2.59;98.40;94480.53;5011297;28;19921;-77
2021/03/29 01:28:15;;;;;;;;;;;;;;;2.59;98.56;94482.28;5010788;28;19928;-77
2021/03/29 01:30:42;;;;;;;;;;;;;;;2.60;98.13;94482.13;5010884;28;19921;-76
2021/03/29 01:33:09;;;;;;;;;;;;;;;2.63;97.96;94479.34;5010759;28;19971;-76
2021/03/29 01:35:37;;;;;;;;;;;;;;;2.66;98.20;94483.34;5011226;28;19922;-76
2021/03/29 01:38:04;;;;;;;;;;;;;;;2.66;97.62;94481.63;5010783;28;19949;-76
2021/03/29 01:40:33;;;;;;;;;;;;;;;2.66;97.74;94479.09;5010711;28;19929;-76
2021/03/29 01:43:00;;;;;;;;;;;;;;;2.70;98.20;94466.94;5010702;28;19921;-76
2021/03/29 01:45:27;;;;;;;;;;;;;;;2.74;98.14;94465.75;5010416;28;20363;-76
2021/03/29 01:47:53;;;;;;;;;;;;;;;2.74;98.32;94473.34;5010873;28;19922;-76
2021/03/29 01:50:21;;;;;;;;;;;;;;;2.77;98.18;94465.50;5010546;28;20410;-76
2021/03/29 01:52:47;;;;;;;;;;;;;;;2.72;98.24;94454.94;5010544;28;19925;-77
2021/03/29 01:55:14;;;;;;;;;;;;;;;2.72;97.76;94457.47;5010346;28;19921;-76
2021/03/29 01:57:41;;;;;;;;;;;;;;;2.65;97.53;94461.47;5010396;28;19925;-76
2021/03/29 02:00:08;;;;;;;;;;;;;;;2.62;97.24;94457.44;5010217;28;19925;-76
2021/03/29 02:02:36;;;;;;;;;;;;;;;2.40;98.26;94459.25;5010363;28;19933;-76
2021/03/29 02:05:05;;;;;;;;;;;;;;;2.45;97.22;94458.84;5010694;28;19927;-76
2021/03/29 02:07:31;;;;;;;;;;;;;;;2.50;98.14;94464.34;5010626;28;19932;-76
2021/03/29 02:09:58;;;;;;;;;;;;;;;2.49;96.93;94457.66;5010220;28;19968;-76
2021/03/29 02:12:24;;;;;;;;;;;;;;;2.54;97.26;94460.63;5010390;28;20292;-76
2021/03/29 02:14:50;;;;;;;;;;;;;;;2.61;96.95;94465.19;5010565;28;19922;-76
2021/03/29 02:17:16;;;;;;;;;;;;;;;2.64;97.25;94460.66;5010203;28;19921;-77
2021/03/29 02:19:43;;;;;;;;;;;;;;;2.66;96.99;94468.94;5010707;28;19925;-77
2021/03/29 02:22:10;;;;;;;;;;;;;;;2.68;97.39;94466.25;5010195;28;20311;-78
2021/03/29 02:24:37;;;;;;;;;;;;;;;2.69;97.49;94462.81;5010023;28;19971;-78
2021/03/29 02:27:03;;;;;;;;;;;;;;;2.69;96.97;94456.94;5010097;28;20361;-78
2021/03/29 02:29:29;;;;;;;;;;;;;;;2.52;96.63;94442.22;5009969;28;19932;-78
2021/03/29 02:31:56;;;;;;;;;;;;;;;2.70;97.19;94463.59;5010257;28;19991;-78
2021/03/29 02:34:22;;;;;;;;;;;;;;;2.74;96.74;94463.22;5009915;28;19921;-77
2021/03/29 02:36:49;;;;;;;;;;;;;;;2.73;96.75;94461.59;5010141;28;20325;-77
2021/03/29 02:39:15;;;;;;;;;;;;;;;2.74;96.84;94460.66;5010120;28;19925;-76
2021/03/29 02:41:42;;;;;;;;;;;;;;;2.76;96.89;94458.00;5010159;28;19925;-76
2021/03/29 02:44:08;;;;;;;;;;;;;;;2.74;96.25;94450.50;5014133;28;19921;-75
2021/03/29 02:46:34;;;;;;;;;;;;;;;2.72;96.85;94454.94;5014182;28;19921;-75
2021/03/29 02:49:03;;;;;;;;;;;;;;;2.70;96.66;94448.38;5016336;28;20408;-75
2021/03/29 02:51:30;;;;;;;;;;;;;;;2.70;96.81;94456.81;5016279;28;19921;-75
2021/03/29 02:53:59;;;;;;;;;;;;;;;2.69;96.68;94459.47;5016548;28;19925;-75
2021/03/29 02:56:26;;;;;;;;;;;;;;;2.61;97.32;94460.09;5016292;28;19944;-75
2021/03/29 02:58:53;;;;;;;;;;;;;;;2.57;97.60;94458.75;5016875;28;19925;-75
2021/03/29 03:01:22;;;;;;;;;;;;;;;2.56;96.51;94457.97;5016267;28;19921;-75
2021/03/29 03:03:51;;;;;;;;;;;;;;;2.59;96.71;94455.16;5016488;28;20227;-75
2021/03/29 03:06:19;;;;;;;;;;;;;;;2.53;96.78;94448.88;5016512;28;19926;-76
2021/03/29 03:08:45;;;;;;;;;;;;;;;2.50;97.74;94456.75;5016221;28;19947;-75
2021/03/29 03:11:12;;;;;;;;;;;;;;;2.54;98.39;94447.13;5016084;28;20413;-77
2021/03/29 03:13:39;;;;;;;;;;;;;;;2.55;97.98;94451.31;5016392;28;19932;-76
2021/03/29 03:16:05;;;;;;;;;;;;;;;2.56;98.37;94450.34;5016214;28;19921;-76
2021/03/29 03:18:32;;;;;;;;;;;;;;;2.57;98.41;94456.22;5016331;28;19983;-76
2021/03/29 03:20:58;;;;;;;;;;;;;;;2.56;97.83;94447.00;5016277;28;19921;-76
2021/03/29 03:23:24;;;;;;;;;;;;;;;2.52;98.03;94449.81;5016141;28;19925;-77
2021/03/29 03:25:51;;;;;;;;;;;;;;;2.49;97.46;94452.59;5015997;28;19925;-76
2021/03/29 03:28:19;;;;;;;;;;;;;;;2.47;97.77;94458.72;5015865;28;20379;-76
2021/03/29 03:30:47;;;;;;;;;;;;;;;2.35;99.00;94453.75;5016071;28;19922;-77
2021/03/29 03:33:14;;;;;;;;;;;;;;;2.38;98.30;94450.97;5015914;28;19921;-77
2021/03/29 03:35:40;;;;;;;;;;;;;;;2.39;98.90;94449.22;5016163;28;21220;-77
2021/03/29 03:38:09;;;;;;;;;;;;;;;2.43;98.46;94445.50;5016027;28;19921;-77
2021/03/29 03:40:36;;;;;;;;;;;;;;;2.47;98.16;94451.94;5016168;28;19921;-77
2021/03/29 03:43:05;;;;;;;;;;;;;;;2.47;98.26;94453.66;5015933;28;19925;-76
2021/03/29 03:45:34;;;;;;;;;;;;;;;2.47;97.37;94459.53;5015598;28;19921;-77
2021/03/29 03:48:00;;;;;;;;;;;;;;;2.45;98.28;94453.78;5016104;28;19921;-77
2021/03/29 03:50:26;;;;;;;;;;;;;;;2.45;98.01;94456.31;5015577;28;20390;-77
2021/03/29 03:52:54;;;;;;;;;;;;;;;2.45;98.05;94463.13;5015815;28;19968;-77
2021/03/29 03:55:21;;;;;;;;;;;;;;;2.42;97.75;94455.78;5012959;28;19925;-77
2021/03/29 03:57:47;;;;;;;;;;;;;;;2.44;98.41;94453.94;5012764;28;20318;-77
2021/03/29 04:00:15;;;;;;;;;;;;;;;2.49;98.12;94459.41;5012539;28;19932;-77
2021/03/29 04:02:44;;;;;;;;;;;;;;;2.46;98.01;94444.44;5012704;28;19931;-76
2021/03/29 04:05:11;;;;;;;;;;;;;;;2.45;98.01;94430.97;5012819;28;20100;-77
2021/03/29 04:07:37;;;;;;;;;;;;;;;2.38;98.56;94433.22;5012437;28;20473;-75
2021/03/29 04:10:09;;;;;;;;;;;;;;;2.35;99.02;94440.25;5012417;28;19925;-76
2021/03/29 04:12:35;;;;;;;;;;;;;;;2.38;98.48;94455.22;5012567;28;19921;-76
2021/03/29 04:15:02;;;;;;;;;;;;;;;2.36;98.59;94445.22;5012325;28;19928;-76
2021/03/29 04:17:28;;;;;;;;;;;;;;;2.38;98.57;94455.22;5012372;28;19925;-75
2021/03/29 04:19:55;;;;;;;;;;;;;;;2.34;98.64;94446.28;5012412;28;20314;-75
2021/03/29 04:22:21;;;;;;;;;;;;;;;2.33;98.65;94454.81;5012437;28;19926;-75
2021/03/29 04:24:47;;;;;;;;;;;;;;;2.32;99.17;94456.53;5011941;28;19921;-75
2021/03/29 04:27:13;;;;;;;;;;;;;;;2.32;98.29;94460.81;5012321;28;20399;-75
2021/03/29 04:29:39;;;;;;;;;;;;;;;2.29;98.40;94466.94;5012394;28;19925;-75
2021/03/29 04:32:05;;;;;;;;;;;;;;;2.26;97.99;94457.03;5011828;28;19952;-75
2021/03/29 04:34:31;;;;;;;;;;;;;;;2.22;97.89;94451.44;5011973;28;19921;-75
2021/03/29 04:36:58;;;;;;;;;;;;;;;2.19;97.73;94451.69;5011818;28;19921;-75
2021/03/29 04:39:24;;;;;;;;;;;;;;;2.18;98.10;94454.34;5012034;28;19933;-75
2021/03/29 04:41:50;;;;;;;;;;;;;;;2.20;98.20;94462.63;5012080;28;19967;-76
2021/03/29 04:44:16;;;;;;;;;;;;;;;2.26;98.18;94483.22;5011978;28;20279;-75
2021/03/29 04:46:42;;;;;;;;;;;;;;;2.26;97.70;94487.47;5011913;28;19967;-75
2021/03/29 04:49:08;;;;;;;;;;;;;;;2.31;98.30;94484.56;5011531;28;20290;-75
2021/03/29 04:51:34;;;;;;;;;;;;;;;2.35;98.14;94480.84;5011933;28;20299;-77
2021/03/29 04:54:01;;;;;;;;;;;;;;;2.38;97.94;94478.88;5012185;28;19925;-76
2021/03/29 04:56:27;;;;;;;;;;;;;;;2.42;97.96;94484.50;5011669;28;20425;-75
2021/03/29 04:58:53;;;;;;;;;;;;;;;2.48;97.58;94478.09;5011466;28;19925;-76
2021/03/29 05:01:19;;;;;;;;;;;;;;;2.53;97.72;94483.59;5011731;28;19921;-78
2021/03/29 05:03:45;;;;;;;;;;;;;;;2.55;97.11;94479.19;5011479;28;19922;-77
2021/03/29 05:06:11;;;;;;;;;;;;;;;2.53;96.47;94483.59;5011280;28;19925;-77
2021/03/29 05:08:37;;;;;;;;;;;;;;;2.51;96.47;94477.84;5011706;28;19921;-77
2021/03/29 05:11:07;;;;;;;;;;;;;;;2.50;96.71;94481.31;5011148;28;19925;-77
2021/03/29 05:13:33;;;;;;;;;;;;;;;2.49;97.10;94480.50;5011224;28;19948;-77
2021/03/29 05:15:59;;;;;;;;;;;;;;;2.50;96.81;94482.09;5011457;28;19926;-77
2021/03/29 05:18:25;;;;;;;;;;;;;;;2.50;96.18;94487.16;5011278;28;19967;-77
2021/03/29 05:20:51;;;;;;;;;;;;;;;2.51;96.70;94493.06;5011112;28;19922;-78
2021/03/29 05:23:17;;;;;;;;;;;;;;;2.47;96.45;94497.59;5011353;28;19925;-77
2021/03/29 05:25:43;;;;;;;;;;;;;;;2.53;96.17;94493.72;5010212;28;20614;-78
2021/03/29 05:28:10;;;;;;;;;;;;;;;2.50;95.20;94494.00;5028576;28;19928;-77
2021/03/29 05:30:36;;;;;;;;;;;;;;;2.57;96.10;94491.72;5029699;28;20285;-78
2021/03/29 05:33:02;;;;;;;;;;;;;;;2.62;95.79;94494.69;5030720;28;19921;-79
2021/03/29 05:35:28;;;;;;;;;;;;;;;2.65;97.37;94491.91;5030212;28;19921;-78
2021/03/29 05:37:54;;;;;;;;;;;;;;;2.66;97.62;94484.19;5030694;28;19925;-77
2021/03/29 05:40:20;;;;;;;;;;;;;;;2.69;97.52;94487.38;5030666;28;19921;-77
2021/03/29 05:42:46;;;;;;;;;;;;;;;2.82;96.79;94494.75;5030446;28;19967;-78
2021/03/29 05:45:13;;;;;;;;;;;;;;;2.98;97.52;94501.88;5029733;28;19940;-77
2021/03/29 05:47:40;;;;;;;;;;;;;;;2.96;95.06;94509.59;5030270;28;20374;-78
2021/03/29 05:50:08;;;;;;;;;;;;;;;3.13;95.07;94500.56;5030010;28;19921;-78
2021/03/29 05:52:34;;;;;;;;;;;;;;;3.31;94.58;94508.34;5030518;28;19932;-79
2021/03/29 05:55:01;;;;;;;;;;;;;;;3.48;93.26;94511.94;5030482;28;19963;-79
2021/03/29 05:57:37;;;;;;;;;;;;;;;3.63;92.94;94509.03;5029427;28;19925;-78
2021/03/29 06:00:18;;;;;;;;;;;;;;;3.80;92.22;94509.28;5030254;28;20469;-77
2021/03/29 06:02:44;;;;;;;;;;;;;;;3.89;91.92;94513.53;5029851;28;19925;-76
2021/03/29 06:05:11;;;;;;;;;;;;;;;3.99;90.48;94509.25;5030239;28;19921;-77
2021/03/29 06:07:37;;;;;;;;;;;;;;;4.12;90.57;94514.03;5029743;28;19925;-77
2021/03/29 06:10:07;;;;;;;;;;;;;;;4.24;89.75;94514.69;5030040;28;20039;-78
2021/03/29 06:12:42;;;;;;;;;;;;;;;4.37;88.78;94505.94;5030116;28;19921;-78
2021/03/29 06:15:09;;;;;;;;;;;;;;;4.50;88.16;94508.19;5029956;28;19921;-77
2021/03/29 06:17:35;;;;;;;;;;;;;;;4.70;86.71;94505.53;5029546;28;19947;-78
2021/03/29 06:20:04;;;;;;;;;;;;;;;4.87;86.84;94506.56;5029806;28;20378;-80
2021/03/29 06:22:31;;;;;;;;;;;;;;;5.05;85.67;94511.69;5029671;28;19925;-79
2021/03/29 06:25:06;;;;;;;;;;;;;;;5.20;84.25;94510.22;5029727;28;20374;-79
2021/03/29 06:27:33;;;;;;;;;;;;;;;5.28;83.04;94524.03;5029623;28;19927;-79
2021/03/29 06:30:26;;;;;;;;;;;;;;;5.35;83.57;94522.50;5029548;28;19920;-79
2021/03/29 06:33:03;;;;;;;;;;;;;;;5.51;83.40;94526.16;5029467;28;19921;-79
2021/03/29 06:35:43;;;;;;;;;;;;;;;5.69;82.10;94526.94;5029280;28;19928;-79
2021/03/29 06:38:11;;;;;;;;;;;;;;;5.88;80.91;94525.19;5029273;28;20007;-79
2021/03/29 06:40:41;;;;;;;;;;;;;;;6.10;79.87;94525.66;5029455;28;20366;-79
2021/03/29 06:43:17;;;;;;;;;;;;;;;6.26;78.64;94530.09;5029495;28;19932;-80
2021/03/29 06:45:44;;;;;;;;;;;;;;;6.22;78.76;94495.63;5029081;28;20310;-80
2021/03/29 06:48:17;;;;;;;;;;;;;;;6.55;77.71;94527.25;5029628;28;19924;-80
2021/03/29 06:50:44;;;;;;;;;;;;;;;6.78;78.06;94531.00;5030154;28;20036;-79
2021/03/29 06:53:10;;;;;;;;;;;;;;;7.22;77.62;94530.84;5029532;28;19921;-79
2021/03/29 06:55:37;;;;;;;;;;;;;;;7.72;74.61;94530.94;5029190;28;19932;-79
2021/03/29 06:58:03;;;;;;;;;;;;;;;8.23;71.51;94524.03;5029823;28;19924;-79
2021/03/29 07:00:30;;;;;;;;;;;;;;;8.75;66.73;94519.47;5029793;28;20317;-79
2021/03/29 07:02:59;;;;;;;;;;;;;;;9.12;66.02;94512.88;5029730;28;19921;-78
2021/03/29 07:05:26;;;;;;;;;;;;;;;9.18;56.22;94514.81;5029276;28;20290;-80
2021/03/29 07:07:53;;;;;;;;;;;;;;;8.90;54.10;94525.50;5029270;28;19925;-79
2021/03/29 07:10:19;;;;;;;;;;;;;;;8.73;52.79;94516.25;5029238;28;19921;-80
2021/03/29 07:12:46;;;;;;;;;;;;;;;7.76;54.51;94513.50;5029434;28;20011;-79
2021/03/29 07:15:14;;;;;;;;;;;;;;;8.63;59.74;94513.91;5029504;28;19955;-79
2021/03/29 07:17:42;;;;;;;;;;;;;;;8.84;53.41;94522.81;5029043;28;19921;-79
2021/03/29 07:20:09;;;;;;;;;;;;;;;8.68;52.17;94516.75;5029249;28;19928;-79
2021/03/29 07:22:36;;;;;;;;;;;;;;;8.45;54.42;94516.63;5029406;28;19932;-80
2021/03/29 07:25:04;;;;;;;;;;;;;;;8.92;56.09;94513.31;5029022;28;20362;-78
2021/03/29 07:27:34;;;;;;;;;;;;;;;9.29;50.89;94517.94;5029373;28;19921;-78
2021/03/29 07:30:01;;;;;;;;;;;;;;;9.32;52.82;94520.16;5031159;28;19968;-78
2021/03/29 07:32:28;;;;;;;;;;;;;;;9.36;50.58;94513.75;5032974;28;21002;-78
2021/03/29 07:34:54;;;;;;;;;;;;;;;9.28;50.50;94514.59;5032826;28;19921;-78
2021/03/29 07:37:28;;;;;;;;;;;;;;;8.79;53.50;94518.97;5032961;28;19967;-77
2021/03/29 07:39:54;;;;;;;;;;;;;;;8.91;53.56;94514.28;5032998;28;19921;-77
2021/03/29 07:42:34;;;;;;;;;;;;;;;8.89;53.43;94517.97;5032588;28;20416;-77
2021/03/29 07:45:01;;;;;;;;;;;;;;;8.91;54.51;94513.47;5032668;28;20008;-77
2021/03/29 07:47:47;;;;;;;;;;;;;;;9.04;56.02;94511.19;5032446;28;19925;-77
2021/03/29 07:50:18;;;;;;;;;;;;;;;9.02;54.05;94509.75;5032518;28;19925;-77
2021/03/29 07:52:47;;;;;;;;;;;;;;;9.08;55.96;94507.31;5032458;28;19979;-76
2021/03/29 07:55:17;;;;;;;;;;;;;;;8.98;52.79;94514.41;5024200;28;20117;-76
2021/03/29 07:58:15;;;;;;;;;;;;;;;9.40;54.17;94511.63;5032597;28;19931;-76
2021/03/29 08:00:56;;;;;;;;;;;;;;;10.02;56.36;94513.28;5032322;28;20390;-77
2021/03/29 08:03:41;;;;;;;;;;;;;;;10.74;53.84;94505.22;5013188;28;19925;-77
2021/03/29 08:06:28;;;;;;;;;;;;;;;11.25;50.33;94508.75;5013279;28;19921;-77
2021/03/29 08:08:54;;;;;;;;;;;;;;;11.58;49.75;94507.53;5022106;28;19925;-77
2021/03/29 08:11:22;;;;;;;;;;;;;;;11.76;48.44;94502.75;5020809;28;19921;-77
2021/03/29 08:13:49;;;;;;;;;;;;;;;12.00;49.13;94502.53;5022750;28;19925;-77
2021/03/29 08:16:16;;;;;;;;;;;;;;;12.34;47.49;94498.47;5022017;28;19928;-77
2021/03/29 08:19:00;;;;;;;;;;;;;;;12.39;46.59;94508.19;5020280;28;20020;-77
2021/03/29 08:21:47;;;;;;;;;;;;;;;11.89;44.76;94507.22;5008703;28;19944;-77
2021/03/29 08:24:17;;;;;;;;;;;;;;;11.87;47.55;94504.03;5022751;28;20044;-76
2021/03/29 08:26:44;;;;;;;;;;;;;;;11.69;48.11;94508.81;5022678;28;19925;-77
2021/03/29 08:29:14;;;;;;;;;;;;;;;11.94;47.54;94500.72;5022327;28;19925;-77
2021/03/29 08:31:58;;;;;;;;;;;;;;;11.81;46.45;94501.41;5021061;28;19944;-76
2021/03/29 08:34:25;;;;;;;;;;;;;;;11.55;46.88;94500.97;5021379;28;20302;-77
2021/03/29 08:36:52;;;;;;;;;;;;;;;11.45;46.72;94505.63;5020606;28;20052;-77
2021/03/29 08:39:18;;;;;;;;;;;;;;;11.85;48.29;94508.56;5020642;28;19925;-77
2021/03/29 08:41:45;;;;;;;;;;;;;;;11.15;46.08;94505.72;5020232;28;19932;-78
2021/03/29 08:44:11;;;;;;;;;;;;;;;10.44;47.29;94505.22;5022381;28;19952;-77
2021/03/29 08:46:38;;;;;;;;;;;;;;;10.56;47.95;94500.44;5020307;28;20345;-76
2021/03/29 08:49:07;;;;;;;;;;;;;;;10.81;48.23;94508.69;5021376;28;19925;-77
2021/03/29 08:51:33;;;;;;;;;;;;;;;10.46;48.42;94502.47;5011617;28;19925;-77
2021/03/29 08:54:07;;;;;;;;;;;;;;;9.95;49.51;94498.75;5011656;28;20382;-77
2021/03/29 08:56:37;;;;;;;;;;;;;;;10.23;51.96;94500.75;5011779;28;20325;-76
2021/03/29 08:59:03;;;;;;;;;;;;;;;10.59;50.48;94501.88;5011671;28;20008;-77
2021/03/29 09:01:29;;;;;;;;;;;;;;;11.04;49.44;94499.25;5013477;28;20489;-76
2021/03/29 09:03:59;;;;;;;;;;;;;;;10.85;48.19;94495.44;5029395;28;20340;-76
2021/03/29 09:06:26;;;;;;;;;;;;;;;10.55;46.42;94496.25;5031270;28;19924;-77
2021/03/29 09:08:52;;;;;;;;;;;;;;;10.52;50.43;94487.13;5031254;28;19944;-77
2021/03/29 09:11:19;;;;;;;;;;;;;;;10.95;47.44;94489.06;5031369;28;19921;-76
2021/03/29 09:13:45;;;;;;;;;;;;;;;10.99;45.53;94491.28;5031192;28;20332;-76
2021/03/29 09:16:11;;;;;;;;;;;;;;;10.77;47.51;94488.63;5031163;28;19945;-77
2021/03/29 09:18:37;;;;;;;;;;;;;;;10.76;47.93;94484.47;5031214;28;19970;-76
2021/03/29 09:21:03;;;;;;;;;;;;;;;10.53;48.33;94478.47;5016870;28;19934;-76
2021/03/29 09:23:31;;;;;;;;;;;;;;;9.67;47.68;94482.09;5011150;28;19921;-77
2021/03/29 09:25:59;;;;;;;;;;;;;;;9.72;48.78;94479.03;5015689;28;19921;-77
2021/03/29 09:28:33;;;;;;;;;;;;;;;10.23;49.10;94490.47;5019931;28;19922;-77
2021/03/29 09:31:00;;;;;;;;;;;;;;;10.31;46.90;94474.97;5010688;28;19980;-77
2021/03/29 09:33:27;;;;;;;;;;;;;;;10.13;45.82;94486.38;5010945;28;19925;-77
2021/03/29 09:35:53;;;;;;;;;;;;;;;9.91;47.13;94487.22;5011067;28;19921;-77
2021/03/29 09:38:30;;;;;;;;;;;;;;;10.26;46.18;94483.22;5011002;28;19932;-77
2021/03/29 09:40:56;;;;;;;;;;;;;;;10.34;46.28;94478.97;5015267;28;20321;-77
2021/03/29 09:43:22;;;;;;;;;;;;;;;10.45;47.64;94470.06;5030342;28;20405;-77
2021/03/29 09:45:49;;;;;;;;;;;;;;;10.46;47.50;94472.44;5030392;28;19921;-77
2021/03/29 09:48:15;;;;;;;;;;;;;;;10.52;47.27;94469.16;5030268;28;20386;-77
2021/03/29 09:50:42;;;;;;;;;;;;;;;10.91;48.28;94469.84;5030150;28;19921;-77
2021/03/29 09:53:12;;;;;;;;;;;;;;;10.45;46.56;94475.97;5029486;28;19925;-77
2021/03/29 09:55:42;;;;;;;;;;;;;;;10.24;48.26;94471.53;5021949;28;19927;-77
2021/03/29 09:58:16;;;;;;;;;;;;;;;10.66;46.20;94464.97;5010901;28;19926;-77
2021/03/29 10:00:42;;;;;;;;;;;;;;;10.93;46.83;94469.66;5010879;28;20005;-76
2021/03/29 10:03:10;;;;;;;;;;;;;;;11.28;46.06;94461.31;5010590;28;19944;-77
2021/03/29 10:05:36;;;;;;;;;;;;;;;11.52;46.20;94469.66;5010287;28;19932;-77
2021/03/29 10:08:02;;;;;;;;;;;;;;;11.61;45.60;94459.06;5010546;28;20388;-76
2021/03/29 10:10:29;;;;;;;;;;;;;;;11.53;46.12;94458.38;5010566;28;19928;-77
2021/03/29 10:13:05;;;;;;;;;;;;;;;11.60;44.07;94461.81;5010275;28;19928;-77
2021/03/29 10:15:32;;;;;;;;;;;;;;;11.58;44.49;94458.63;5010378;28;19925;-77
2021/03/29 10:18:05;;;;;;;;;;;;;;;11.36;42.74;94456.84;5015458;28;19921;-77
2021/03/29 10:20:34;;;;;;;;;;;;;;;11.57;42.91;94457.03;5010079;28;19932;-77
2021/03/29 10:23:15;;;;;;;;;;;;;;;11.40;45.28;94453.91;5010135;28;19932;-77
2021/03/29 10:25:41;;;;;;;;;;;;;;;11.71;41.94;94445.88;5009695;28;19921;-77
2021/03/29 10:28:16;;;;;;;;;;;;;;;10.78;43.73;94447.34;5009992;28;19921;-77
2021/03/29 10:30:42;;;;;;;;;;;;;;;11.48;45.76;94443.50;5009752;28;19952;-77
2021/03/29 10:33:09;;;;;;;;;;;;;;;11.55;41.99;94435.84;5010147;28;19921;-77
2021/03/29 10:35:36;;;;;;;;;;;;;;;11.38;43.09;94432.72;5010201;28;19932;-77
2021/03/29 10:38:03;;;;;;;;;;;;;;;11.28;43.67;94441.53;5010054;28;19976;-77
2021/03/29 10:40:29;;;;;;;;;;;;;;;10.99;42.84;94439.84;5009765;28;19973;-77
2021/03/29 10:42:55;;;;;;;;;;;;;;;11.12;43.17;94437.44;5009787;28;19968;-77
2021/03/29 10:45:22;;;;;;;;;;;;;;;11.59;44.85;94427.56;5009624;28;20318;-76
2021/03/29 10:47:48;;;;;;;;;;;;;;;11.86;42.07;94429.56;5009955;28;19922;-77
2021/03/29 10:50:15;;;;;;;;;;;;;;;12.12;42.39;94416.09;5009739;28;19968;-77
2021/03/29 10:52:42;;;;;;;;;;;;;;;12.19;41.51;94408.41;5010081;28;20034;-78
2021/03/29 10:55:09;;;;;;;;;;;;;;;12.44;41.68;94415.66;5009977;28;19925;-77
2021/03/29 10:57:35;;;;;;;;;;;;;;;12.33;40.92;94411.03;5009772;28;20180;-77
2021/03/29 11:00:01;;;;;;;;;;;;;;;11.95;41.61;94400.09;5009911;28;19921;-77
2021/03/29 11:02:28;;;;;;;;;;;;;;;11.55;41.26;94407.53;5009627;28;19932;-77
2021/03/29 11:04:54;;;;;;;;;;;;;;;11.69;42.16;94388.66;5011212;28;20000;-76
2021/03/29 11:07:21;;;;;;;;;;;;;;;11.75;43.39;94395.63;5013605;28;20690;-76
2021/03/29 11:09:47;;;;;;;;;;;;;;;11.90;43.45;94385.22;5013387;28;19921;-76
2021/03/29 11:12:13;;;;;;;;;;;;;;;12.34;42.95;94382.50;5013467;28;19926;-76
2021/03/29 11:14:39;;;;;;;;;;;;;;;12.63;40.88;94383.22;5013659;28;19921;-76
2021/03/29 11:17:07;;;;;;;;;;;;;;;12.77;39.49;94380.69;5013430;28;19921;-77
2021/03/29 11:19:33;;;;;;;;;;;;;;;12.19;40.04;94382.66;5013681;28;19921;-77
2021/03/29 11:21:59;;;;;;;;;;;;;;;12.65;41.36;94367.56;5013590;28;19928;-77
2021/03/29 11:24:26;;;;;;;;;;;;;;;12.32;38.88;94370.81;5013135;28;19925;-77
2021/03/29 11:26:52;;;;;;;;;;;;;;;11.71;40.69;94368.66;5013188;28;20301;-77
2021/03/29 11:29:19;;;;;;;;;;;;;;;11.44;40.96;94370.25;5013127;28;19925;-77
2021/03/29 11:31:45;;;;;;;;;;;;;;;11.08;40.94;94374.50;5013215;28;19922;-77
2021/03/29 11:34:11;;;;;;;;;;;;;;;11.23;41.90;94367.50;5013366;28;19921;-77
2021/03/29 11:36:38;;;;;;;;;;;;;;;11.74;42.71;94360.56;5013236;28;20313;-78
2021/03/29 11:39:05;;;;;;;;;;;;;;;12.01;41.92;94357.34;5013140;28;19925;-77
2021/03/29 11:41:31;;;;;;;;;;;;;;;12.59;42.92;94340.00;5013186;28;19921;-77
2021/03/29 11:43:58;;;;;;;;;;;;;;;13.19;40.86;94339.31;5012815;28;19922;-78
2021/03/29 11:46:24;;;;;;;;;;;;;;;13.48;38.48;94322.66;5012768;28;20425;-77
2021/03/29 11:48:50;;;;;;;;;;;;;;;13.14;38.67;94323.63;5012853;28;19922;-77
2021/03/29 11:51:17;;;;;;;;;;;;;;;13.12;38.61;94323.81;5012865;28;20401;-77
2021/03/29 11:55:58;;;;;;;2.20;0.83;;;;;;;12.81;38.95;94317.44;5116773;27;847444;-77
2021/03/29 11:58:25;;;;;;;4.13;1.00;;;;;;;13.03;40.43;94312.91;5108192;28;20040;-77
2021/03/29 12:00:54;;;;;;;2.63;1.48;;;;;;;12.95;40.25;94316.47;5126911;28;20047;-77
2021/03/29 12:03:27;;;;;;;2.17;0.93;;;;;;;13.15;38.67;94302.00;5127438;28;20062;-77
2021/03/29 12:05:55;;;;;;;2.38;0.90;;;;;;;13.41;40.46;94300.38;5127668;28;20054;-77
2021/03/29 12:08:27;;;;;;;3.90;1.10;;;;;;;13.43;38.68;94295.84;5127276;28;20050;-78
2021/03/29 12:13:42;;;;;;;1.55;1.02;;;;;;;13.38;39.31;94293.06;5127048;28;20162;-78
2021/03/29 12:16:08;;;;;;;4.05;1.08;;;;;;;13.42;39.38;94292.44;5127103;28;20061;-78
2021/03/29 12:18:39;;;;;;;0.98;0.65;;;;;;;13.13;37.30;94278.16;5127391;28;20040;-77
2021/03/29 12:21:08;;;;;;;0.90;0.52;;;;;;;12.77;36.65;94286.09;5126843;28;20543;-77
2021/03/29 12:23:36;;;;;;;1.25;0.70;;;;;;;12.94;38.29;94291.69;5127266;28;20044;-77
2021/03/29 12:26:04;;;;;;;1.85;0.80;;;;;;;12.63;38.01;94287.06;5126174;28;20039;-77
2021/03/29 12:28:32;;;;;;;1.75;0.73;;;;;;;12.52;39.43;94280.69;5127070;28;20138;-77
2021/03/29 12:31:00;;;;;;;1.08;0.52;;;;;;;12.31;37.16;94274.69;5126923;27;20446;-77
2021/03/29 12:33:28;;;;;;;2.45;0.85;;;;;;;12.45;38.34;94278.09;5126646;27;20052;-77
2021/03/29 12:35:56;;;;;;;1.42;0.88;;;;;;;12.31;37.90;94272.09;5126743;27;20047;-77
2021/03/29 12:38:24;;;;;;;4.00;1.25;;;;;;;12.56;38.50;94274.16;5126949;28;20047;-77
2021/03/29 12:40:56;;;;;;;2.25;0.65;;;;;;;12.76;38.84;94268.22;5126753;27;20491;-78
2021/03/29 12:43:32;;;;;;;3.45;1.00;;;;;;;13.00;36.93;94266.09;5126666;27;20138;-77
2021/03/29 12:46:01;;;;;;;3.72;1.17;;;;;;;13.08;38.22;94264.09;5126937;27;20048;-77
2021/03/29 12:48:27;;;;;;;2.28;0.70;;;;;;;12.89;37.58;94262.28;5126705;27;20414;-77
2021/03/29 12:50:54;;;;;;;;;;;;;;;12.97;38.43;94267.28;5127127;27;20494;-78
2021/03/29 12:53:23;;;;;;;1.40;0.50;;;;;;;13.07;38.20;94261.72;5126750;28;19965;-77
2021/03/29 12:55:50;;;;;;;1.80;0.63;;;;;;;13.04;37.32;94249.19;5126201;27;20056;-77
2021/03/29 12:58:17;;;;;;;;;;;;;;;13.27;37.29;94259.13;5106492;27;20503;-77